.
WxDataArchive / Data Records for 2007-08-28
2007-08-27 August 2007 2007-08-29

Data Records for Tuesday, 28 August 2007

Time	Temp	Chill	HIndex	Humid	Dewpt	 Wind 	HiWind	WindDir	Rain 	Barom 
-----	----	-----	------	-----	-----	------	------	-------	-----	----- 
00:00	66.8	66.8	66.8	87	62.8	0	2	68	0.00	30.053 
00:05	66.8	66.8	66.8	88	63.1	0	1	68	0.00	30.050 
00:10	66.6	66.6	66.6	88	62.9	0	2	68	0.00	30.049 
00:15	66.4	66.4	66.4	88	62.7	1	3	68	0.00	30.050 
00:20	66.3	66.3	66.3	88	62.6	1	3	68	0.00	30.049 
00:25	66.1	66.1	66.1	88	62.4	0	2	68	0.00	30.049 
00:30	66.0	66.0	66.0	89	62.7	0	1	68	0.00	30.048 
00:35	65.8	65.8	65.8	89	62.5	0	1	68	0.00	30.048 
00:40	65.6	65.6	65.6	89	62.3	0	0	---	0.00	30.048 
00:45	65.6	65.6	65.6	90	62.6	0	2	68	0.00	30.048 
00:50	65.5	65.5	65.5	90	62.5	0	1	68	0.00	30.044 
00:55	65.5	65.5	65.5	90	62.5	0	1	68	0.00	30.042 
01:00	65.3	65.3	65.3	90	62.3	0	1	68	0.00	30.038 
01:05	65.3	65.3	65.3	90	62.3	0	1	68	0.00	30.037 
01:10	65.2	65.2	65.2	91	62.5	0	1	68	0.00	30.036 
01:15	65.2	65.2	65.2	91	62.5	0	2	68	0.00	30.034 
01:20	65.0	65.0	65.0	91	62.3	0	1	68	0.00	30.033 
01:25	65.0	65.0	65.0	91	62.3	0	1	68	0.00	30.032 
01:30	64.8	64.8	64.8	91	62.1	0	1	68	0.00	30.030 
01:35	64.7	64.7	64.7	92	62.3	0	1	68	0.00	30.029 
01:40	64.7	64.7	64.7	92	62.3	0	1	68	0.00	30.025 
01:45	64.5	64.5	64.5	92	62.1	0	1	68	0.00	30.025 
01:50	64.3	64.3	64.3	92	61.9	0	0	---	0.00	30.025 
01:55	64.2	64.2	64.2	92	61.8	0	1	68	0.00	30.025 
02:00	64.2	64.2	64.2	92	61.8	0	1	68	0.00	30.025 
02:05	64.0	64.0	64.0	93	61.9	0	1	68	0.00	30.025 
02:10	63.9	63.9	63.9	93	61.8	0	0	---	0.00	30.023 
02:15	63.9	63.9	63.9	93	61.8	0	0	---	0.00	30.023 
02:20	63.7	63.7	63.7	93	61.6	0	1	68	0.00	30.022 
02:25	63.5	63.5	63.5	93	61.4	0	0	---	0.00	30.021 
02:30	63.5	63.5	63.5	94	61.7	0	0	---	0.00	30.020 
02:35	63.4	63.4	63.4	94	61.6	0	0	---	0.00	30.019 
02:40	63.4	63.4	63.4	94	61.6	0	0	---	0.00	30.021 
02:45	63.2	63.2	63.2	94	61.4	0	0	---	0.00	30.020 
02:50	63.1	63.1	63.1	94	61.3	0	0	---	0.00	30.018 
02:55	63.1	63.1	63.1	94	61.3	0	0	---	0.00	30.018 
03:00	62.9	62.9	62.9	95	61.4	0	0	---	0.00	30.015 
03:05	62.9	62.9	62.9	95	61.4	0	1	68	0.00	30.015 
03:10	62.9	62.9	62.9	95	61.4	0	1	68	0.00	30.010 
03:15	62.9	62.9	62.9	95	61.4	0	1	68	0.00	30.010 
03:20	62.9	62.9	62.9	95	61.4	0	1	68	0.00	30.009 
03:25	62.9	62.9	62.9	95	61.4	0	0	---	0.00	30.009 
03:30	62.7	62.7	62.7	95	61.2	0	0	---	0.00	30.011 
03:35	62.6	62.6	62.6	95	61.1	0	0	---	0.00	30.012 
03:40	62.4	62.4	62.4	95	60.9	0	0	---	0.00	30.014 
03:45	62.3	62.3	62.3	95	60.8	0	0	---	0.00	30.015 
03:50	62.3	62.3	62.3	95	60.8	0	0	---	0.00	30.016 
03:55	62.1	62.1	62.1	95	60.6	0	0	---	0.00	30.016 
04:00	62.1	62.1	62.1	96	60.9	0	0	---	0.00	30.018 
04:05	62.0	62.0	62.0	96	60.8	0	0	---	0.00	30.021 
04:10	62.0	62.0	62.0	96	60.8	0	0	---	0.00	30.022 
04:15	62.0	62.0	62.0	96	60.8	0	0	---	0.00	30.022 
04:20	62.0	62.0	62.0	96	60.8	0	0	---	0.00	30.022 
04:25	61.8	61.8	61.8	96	60.6	0	0	---	0.00	30.022 
04:30	61.8	61.8	61.8	96	60.6	0	0	---	0.00	30.023 
04:35	61.8	61.8	61.8	96	60.6	0	0	---	0.00	30.023 
04:40	61.8	61.8	61.8	96	60.6	0	0	---	0.00	30.024 
04:45	61.8	61.8	61.8	96	60.6	0	0	---	0.00	30.027 
04:50	61.6	61.6	61.6	96	60.4	0	0	---	0.00	30.025 
04:55	61.6	61.6	61.6	96	60.4	0	0	---	0.00	30.024 
05:00	61.5	61.5	61.5	96	60.3	0	0	---	0.00	30.025 
05:05	61.5	61.5	61.5	96	60.3	0	0	---	0.00	30.025 
05:10	61.3	61.3	61.3	96	60.1	0	0	---	0.00	30.028 
05:15	61.3	61.3	61.3	96	60.1	0	0	---	0.00	30.030 
05:20	61.3	61.3	61.3	96	60.1	0	0	---	0.00	30.032 
05:25	61.3	61.3	61.3	96	60.1	0	0	---	0.00	30.034 
05:30	61.3	61.3	61.3	97	60.4	0	1	68	0.00	30.033 
05:35	61.5	61.5	61.5	97	60.6	0	1	68	0.00	30.031 
05:40	61.6	61.6	61.6	97	60.7	0	0	---	0.00	30.030 
05:45	61.8	61.8	61.8	97	60.9	0	1	68	0.00	30.032 
05:50	61.8	61.8	61.8	97	60.9	0	0	---	0.00	30.034 
05:55	61.8	61.8	61.8	97	60.9	0	0	---	0.00	30.033 
06:00	61.8	61.8	61.8	97	60.9	0	0	---	0.00	30.033 
06:05	61.8	61.8	61.8	97	60.9	0	0	---	0.00	30.034 
06:10	61.6	61.6	61.6	97	60.7	0	0	---	0.00	30.032 
06:15	61.6	61.6	61.6	97	60.7	0	0	---	0.00	30.032 
06:20	61.8	61.8	61.8	97	60.9	0	0	---	0.00	30.033 
06:25	61.8	61.8	61.8	97	60.9	0	1	68	0.00	30.032 
06:30	61.8	61.8	61.8	97	60.9	0	0	---	0.00	30.031 
06:35	61.8	61.8	61.8	97	60.9	0	0	---	0.00	30.030 
06:40	62.0	62.0	62.0	97	61.1	0	0	---	0.00	30.028 
06:45	62.1	62.1	62.1	97	61.2	0	0	---	0.00	30.028 
06:50	62.3	62.3	62.3	97	61.4	0	1	68	0.00	30.030 
06:55	62.6	62.6	62.6	97	61.7	0	1	68	0.00	30.027 
07:00	62.9	62.9	62.9	97	62.0	0	1	90	0.00	30.029 
07:05	63.2	63.2	63.2	97	62.3	0	0	---	0.00	30.037 
07:10	63.5	63.5	63.5	97	62.6	0	0	---	0.00	30.038 
07:15	63.9	63.9	63.9	97	63.0	0	0	---	0.00	30.037 
07:20	64.5	64.5	64.5	97	63.6	0	1	112	0.00	30.035 
07:25	65.2	65.2	65.2	96	64.0	0	1	112	0.00	30.037 
07:30	66.1	66.1	66.1	93	64.0	0	0	---	0.00	30.038 
07:35	67.3	67.3	67.3	90	64.3	0	1	112	0.00	30.039 
07:40	68.1	68.1	68.1	85	63.4	0	1	112	0.00	30.040 
07:45	68.3	68.3	68.3	82	62.6	0	1	112	0.00	30.042 
07:50	68.3	68.3	68.3	83	62.9	0	2	112	0.00	30.043 
07:55	68.3	68.3	68.3	83	62.9	0	1	112	0.00	30.043 
08:00	68.1	68.1	68.1	83	62.7	0	1	112	0.00	30.045 
08:05	68.1	68.1	68.1	83	62.7	0	0	---	0.00	30.046 
08:10	68.1	68.1	68.1	83	62.7	0	1	112	0.00	30.048 
08:15	68.3	68.3	68.3	83	62.9	0	1	112	0.00	30.053 
08:20	68.4	68.4	68.4	83	63.0	0	1	112	0.00	30.055 
08:25	68.4	68.4	68.4	83	63.0	0	1	112	0.00	30.056 
08:30	68.6	68.6	68.6	83	63.2	0	1	112	0.00	30.057 
08:35	68.8	68.8	68.8	83	63.4	0	0	---	0.00	30.057 
08:40	68.9	68.9	68.9	82	63.2	0	1	112	0.00	30.056 
08:45	69.3	69.3	69.3	82	63.6	0	0	---	0.00	30.057 
08:50	69.6	69.6	69.6	81	63.5	0	1	112	0.00	30.055 
08:55	69.8	69.8	69.8	81	63.7	0	0	---	0.00	30.054 
09:00	69.9	69.9	69.9	81	63.8	0	0	---	0.00	30.055 
09:05	70.3	70.3	70.3	79	63.5	0	1	112	0.00	30.054 
09:10	71.5	71.5	71.5	77	63.9	0	1	112	0.00	30.053 
09:15	72.3	72.3	72.3	76	64.3	0	2	112	0.00	30.052 
09:20	73.3	73.3	73.3	73	64.1	0	1	112	0.00	30.051 
09:25	74.4	74.4	74.4	71	64.4	0	1	112	0.00	30.052 
09:30	75.1	75.1	76.6	72	65.4	0	2	112	0.00	30.049 
09:35	76.1	76.1	77.8	69	65.2	0	2	112	0.00	30.049 
09:40	77.0	77.0	78.8	66	64.8	0	2	112	0.00	30.048 
09:45	77.6	77.6	79.4	63	64.0	1	3	202	0.00	30.048 
09:50	77.9	77.9	79.7	63	64.3	1	3	112	0.00	30.045 
09:55	78.1	78.1	79.9	62	64.0	1	3	112	0.00	30.047 
10:00	78.1	78.1	79.9	63	64.5	1	3	112	0.00	30.044 
10:05	78.3	78.3	80.2	64	65.1	1	3	248	0.00	30.041 
10:10	78.8	78.8	80.8	65	66.0	0	2	90	0.00	30.043 
10:15	79.4	79.4	81.3	62	65.2	0	1	90	0.00	30.043 
10:20	79.8	79.8	81.8	62	65.6	1	3	270	0.00	30.040 
10:25	80.1	80.1	81.9	60	64.9	1	2	248	0.00	30.041 
10:30	80.9	80.9	82.8	59	65.2	1	4	90	0.00	30.036 
10:35	81.4	81.4	83.8	61	66.6	0	2	90	0.00	30.034 
10:40	82.2	82.2	84.3	58	65.9	0	3	112	0.00	30.031 
10:45	82.4	82.4	84.6	58	66.1	1	3	112	0.00	30.029 
10:50	82.6	82.6	84.5	56	65.3	0	1	135	0.00	30.029 
10:55	83.2	83.2	85.1	55	65.3	1	3	90	0.00	30.029 
11:00	83.6	83.6	85.2	53	64.6	1	3	270	0.00	30.027 
11:05	83.8	83.8	85.5	53	64.8	2	3	112	0.00	30.028 
11:10	83.6	83.6	85.5	54	65.2	1	4	112	0.00	30.026 
11:15	83.8	83.8	86.2	56	66.4	1	3	22	0.00	30.026 
11:20	84.1	84.1	86.7	56	66.7	1	3	45	0.00	30.026 
11:25	84.3	84.3	87.0	56	66.9	1	3	292	0.00	30.026 
11:30	84.9	84.9	87.1	53	65.8	1	2	338	0.00	30.022 
11:35	85.1	85.1	87.1	52	65.5	1	4	338	0.00	30.021 
11:40	85.3	85.3	88.8	57	68.3	0	1	225	0.00	30.022 
11:45	85.5	85.5	87.4	51	65.3	0	2	225	0.00	30.022 
11:50	85.5	85.5	86.9	49	64.1	1	3	270	0.00	30.023 
11:55	85.7	85.7	88.6	54	67.1	1	2	270	0.00	30.020 
12:00	86.1	86.1	87.5	48	64.1	1	3	270	0.00	30.019 
12:05	86.1	86.1	87.5	48	64.1	1	3	270	0.00	30.023 
12:10	86.5	86.5	89.6	53	67.3	1	3	270	0.00	30.023 
12:15	87.0	87.0	89.4	50	66.1	0	1	338	0.00	30.021 
12:20	86.7	86.7	88.1	47	64.0	1	3	292	0.00	30.021 
12:25	86.3	86.3	87.0	45	62.4	1	3	338	0.00	30.023 
12:30	86.3	86.3	88.0	49	64.9	0	2	338	0.00	30.022 
12:35	87.0	87.0	89.7	51	66.6	0	3	315	0.00	30.018 
12:40	87.4	87.4	88.5	45	63.4	0	2	315	0.00	30.016 
12:45	87.2	87.2	88.5	46	63.9	0	2	315	0.00	30.016 
12:50	87.4	87.4	88.2	44	62.8	1	3	292	0.00	30.016 
12:55	87.0	87.0	87.6	44	62.4	1	3	338	0.00	30.015 
13:00	87.2	87.2	89.1	48	65.1	0	1	338	0.00	30.015 
13:05	87.4	87.4	87.9	43	62.1	1	2	338	0.00	30.017 
13:10	87.6	87.6	88.2	43	62.3	1	3	248	0.00	30.013 
13:15	88.0	88.0	89.4	45	64.0	0	1	248	0.00	30.013 
13:20	88.4	88.4	89.6	44	63.7	1	3	248	0.00	30.012 
13:25	88.6	88.6	89.6	43	63.2	1	3	248	0.00	30.012 
13:30	88.6	88.6	90.3	45	64.5	0	3	112	0.00	30.010 
13:35	88.6	88.6	89.6	43	63.2	0	2	112	0.00	30.006 
13:40	88.4	88.4	88.7	41	61.7	0	2	90	0.00	30.004 
13:45	88.6	88.6	89.6	43	63.2	0	1	22	0.00	30.003 
13:50	88.8	88.8	89.6	42	62.7	1	2	22	0.00	30.001 
13:55	88.8	88.8	88.7	39	60.6	0	2	292	0.00	30.000 
14:00	88.8	88.8	89.9	43	63.4	1	3	292	0.00	29.999 
14:05	89.3	89.3	90.6	43	63.8	1	3	292	0.00	29.997 
14:10	89.3	89.3	90.3	42	63.2	1	3	292	0.00	29.996 
14:15	89.0	89.0	90.2	43	63.6	1	3	225	0.00	29.994 
14:20	89.0	89.0	89.6	41	62.2	1	3	248	0.00	29.990 
14:25	89.0	89.0	90.2	43	63.6	1	3	248	0.00	29.985 
14:30	89.3	89.3	90.0	41	62.5	1	4	90	0.00	29.985 
14:35	89.3	89.3	89.4	39	61.0	1	5	90	0.00	29.984 
14:40	89.3	89.3	90.3	42	63.2	1	3	180	0.00	29.984 
14:45	89.5	89.5	89.6	39	61.2	1	3	112	0.00	29.984 
14:50	89.5	89.5	90.0	40	61.9	1	2	270	0.00	29.983 
14:55	89.9	89.9	91.2	42	63.7	0	2	270	0.00	29.982 
15:00	89.9	89.9	91.6	43	64.4	1	3	270	0.00	29.980 
15:05	89.7	89.7	89.0	36	59.2	0	2	270	0.00	29.980 
15:10	89.9	89.9	91.9	44	65.0	0	4	270	0.00	29.979 
15:15	89.7	89.7	90.6	41	62.8	2	5	90	0.00	29.978 
15:20	89.0	89.0	90.9	45	64.9	2	4	90	0.00	29.977 
15:25	89.0	89.0	90.5	44	64.2	0	4	90	0.00	29.980 
15:30	89.0	89.0	90.5	44	64.2	1	2	90	0.00	29.980 
15:35	89.3	89.3	91.7	46	65.8	1	3	90	0.00	29.977 
15:40	89.0	89.0	90.2	43	63.6	1	3	112	0.00	29.976 
15:45	88.6	88.6	88.7	40	61.1	2	4	270	0.00	29.974 
15:50	88.6	88.6	89.6	43	63.2	1	4	270	0.00	29.975 
15:55	88.4	88.4	89.6	44	63.7	1	4	112	0.00	29.978 
16:00	88.4	88.4	89.6	44	63.7	1	3	90	0.00	29.976 
16:05	88.4	88.4	89.0	42	62.3	1	4	112	0.00	29.976 
16:10	88.2	88.2	89.0	43	62.8	1	4	90	0.00	29.977 
16:15	88.0	88.0	88.7	43	62.7	1	5	90	0.00	29.979 
16:20	87.8	87.8	88.8	44	63.1	1	5	248	0.00	29.977 
16:25	87.6	87.6	88.2	43	62.3	2	4	90	0.00	29.973 
16:30	87.8	87.8	88.8	44	63.1	1	3	112	0.00	29.975 
16:35	87.6	87.6	88.5	44	63.0	2	4	112	0.00	29.973 
16:40	87.4	87.4	88.5	45	63.4	1	5	112	0.00	29.973 
16:45	87.4	87.4	88.5	45	63.4	1	3	90	0.00	29.972 
16:50	87.0	87.0	87.9	45	63.1	0	3	270	0.00	29.972 
16:55	86.7	86.7	87.8	46	63.4	0	2	292	0.00	29.974 
17:00	86.7	86.7	87.8	46	63.4	1	3	338	0.00	29.974 
17:05	86.5	86.5	87.5	46	63.2	1	2	22	0.00	29.974 
17:10	86.5	86.5	87.5	46	63.2	0	3	22	0.00	29.973 
17:15	86.3	86.3	87.2	46	63.0	1	3	90	0.00	29.972 
17:20	86.1	86.1	87.5	48	64.1	0	1	90	0.00	29.971 
17:25	85.9	85.9	87.2	48	63.9	0	2	202	0.00	29.971 
17:30	85.9	85.9	87.2	48	63.9	0	2	202	0.00	29.971 
17:35	85.5	85.5	86.4	47	62.9	0	1	202	0.00	29.970 
17:40	85.3	85.3	86.6	49	63.9	0	2	225	0.00	29.969 
17:45	85.3	85.3	86.9	50	64.5	0	2	225	0.00	29.970 
17:50	85.1	85.1	86.9	51	64.9	0	2	225	0.00	29.969 
17:55	84.9	84.9	86.3	50	64.2	0	1	225	0.00	29.969 
18:00	84.7	84.7	86.3	51	64.5	0	1	248	0.00	29.960 
18:05	84.5	84.5	86.3	52	64.9	0	3	248	0.00	29.960 
18:10	84.5	84.5	86.3	52	64.9	0	2	248	0.00	29.960 
18:15	84.3	84.3	86.2	53	65.3	0	1	202	0.00	29.955 
18:20	84.1	84.1	86.2	54	65.6	0	1	202	0.00	29.955 
18:25	84.0	84.0	86.0	54	65.5	0	0	---	0.00	29.955 
18:30	83.6	83.6	85.5	54	65.2	0	1	202	0.00	29.956 
18:35	83.4	83.4	85.6	56	66.0	0	1	202	0.00	29.956 
18:40	83.2	83.2	85.6	57	66.4	0	0	---	0.00	29.956 
18:45	82.8	82.8	85.0	57	66.0	0	0	---	0.00	29.955 
18:50	82.6	82.6	84.9	58	66.3	0	0	---	0.00	29.955 
18:55	82.2	82.2	84.3	58	65.9	0	0	---	0.00	29.955 
19:00	81.8	81.8	84.1	60	66.5	0	0	---	0.00	29.955 
19:05	81.4	81.4	83.9	62	67.1	0	0	---	0.00	29.955 
19:10	81.1	81.1	83.5	62	66.8	0	0	---	0.00	29.955 
19:15	80.7	80.7	83.1	63	66.9	0	0	---	0.00	29.954 
19:20	80.3	80.3	82.8	65	67.4	0	0	---	0.00	29.954 
19:25	79.8	79.8	82.1	65	67.0	0	0	---	0.00	29.954 
19:30	79.4	79.4	81.7	67	67.5	0	0	---	0.00	29.956 
19:35	79.0	79.0	81.2	67	67.1	0	0	---	0.00	29.956 
19:40	78.6	78.6	80.7	68	67.1	0	0	---	0.00	29.956 
19:45	78.1	78.1	80.1	69	67.1	0	0	---	0.00	29.956 
19:50	77.7	77.7	79.6	70	67.1	0	0	---	0.00	29.956 
19:55	77.4	77.4	79.3	71	67.2	0	0	---	0.00	29.958 
20:00	76.8	76.8	78.5	72	67.1	0	0	---	0.00	29.960 
20:05	76.5	76.5	78.1	73	67.2	0	0	---	0.00	29.958 
20:10	76.3	76.3	77.8	74	67.4	0	0	---	0.00	29.960 
20:15	76.0	76.0	77.4	75	67.5	0	0	---	0.00	29.967 
20:20	75.6	75.6	76.8	76	67.5	0	0	---	0.00	29.969 
20:25	75.3	75.3	76.3	77	67.6	0	0	---	0.00	29.971 
20:30	75.1	75.1	76.0	78	67.8	0	0	---	0.00	29.971 
20:35	74.9	74.9	74.9	79	67.9	0	0	---	0.00	29.971 
20:40	74.7	74.7	74.7	80	68.1	0	0	---	0.00	29.972 
20:45	74.6	74.6	74.6	80	68.0	0	0	---	0.00	29.973 
20:50	74.4	74.4	74.4	81	68.2	0	0	---	0.00	29.973 
20:55	74.2	74.2	74.2	81	68.0	0	0	---	0.00	29.974 
21:00	74.0	74.0	74.0	82	68.1	0	0	---	0.00	29.974 
21:05	73.9	73.9	73.9	82	68.0	0	0	---	0.00	29.967 
21:10	73.5	73.5	73.5	83	68.0	0	0	---	0.00	29.967 
21:15	73.3	73.3	73.3	83	67.8	0	0	---	0.00	29.968 
21:20	73.2	73.2	73.2	84	68.1	0	0	---	0.00	29.969 
21:25	73.0	73.0	73.0	84	67.9	0	0	---	0.00	29.968 
21:30	73.0	73.0	73.0	85	68.2	0	0	---	0.00	29.969 
21:35	72.8	72.8	72.8	85	68.0	0	0	---	0.00	29.969 
21:40	72.7	72.7	72.7	85	67.9	0	0	---	0.00	29.969 
21:45	72.7	72.7	72.7	86	68.3	0	0	---	0.00	29.971 
21:50	72.5	72.5	72.5	86	68.1	0	0	---	0.00	29.971 
21:55	72.1	72.1	72.1	87	68.0	0	0	---	0.00	29.973 
22:00	72.0	72.0	72.0	87	67.9	0	0	---	0.00	29.970 
22:05	71.8	71.8	71.8	88	68.0	0	0	---	0.00	29.966 
22:10	71.6	71.6	71.6	88	67.8	0	0	---	0.00	29.970 
22:15	71.6	71.6	71.6	89	68.2	0	0	---	0.00	29.969 
22:20	71.5	71.5	71.5	89	68.1	0	0	---	0.00	29.967 
22:25	71.3	71.3	71.3	89	67.9	0	0	---	0.00	29.967 
22:30	71.3	71.3	71.3	90	68.2	0	0	---	0.00	29.970 
22:35	71.3	71.3	71.3	91	68.5	0	0	---	0.00	29.973 
22:40	71.1	71.1	71.1	91	68.3	0	0	---	0.00	29.975 
22:45	70.9	70.9	70.9	91	68.1	0	0	---	0.00	29.975 
22:50	70.9	70.9	70.9	91	68.1	0	0	---	0.00	29.973 
22:55	70.8	70.8	70.8	91	68.0	0	0	---	0.00	29.971 
23:00	70.6	70.6	70.6	92	68.2	0	0	---	0.00	29.971 
23:05	70.6	70.6	70.6	92	68.2	0	0	---	0.00	29.971 
23:10	70.4	70.4	70.4	92	68.0	0	0	---	0.00	29.972 
23:15	70.3	70.3	70.3	92	67.9	0	0	---	0.00	29.972 
23:20	70.3	70.3	70.3	92	67.9	0	0	---	0.00	29.972 
23:25	70.3	70.3	70.3	92	67.9	0	0	---	0.00	29.969 
23:30	70.3	70.3	70.3	92	67.9	0	0	---	0.00	29.967 
23:35	70.1	70.1	70.1	93	68.0	0	0	---	0.00	29.965 
23:40	70.1	70.1	70.1	93	68.0	0	0	---	0.00	29.965 
23:45	69.9	69.9	69.9	93	67.8	0	0	---	0.00	29.964 
23:50	69.9	69.9	69.9	93	67.8	0	0	---	0.00	29.965 
23:55	69.8	69.8	69.8	94	68.0	0	0	---	0.00	29.965 

CoCoRaHS
IN-AL-39
A2 Web Hosting
Creative Commons License
GoDaddy
Look for:

loaded 2017-10-19 12:27:52 • last modified 2010-11-18 10:43:29
Privacy PolicyDisclaimer
• wx.awcolley.com is powered by PmWiki v.2002016 •
• all content (unless otherwise noted) © 2017 A W Colley